createdAt,value
2022-10-01T00:00:44.154Z,1004.60
2022-10-01T00:01:44.155Z,1004.58
2022-10-01T00:02:43.247Z,1004.57
2022-10-01T00:03:44.646Z,1004.50
2022-10-01T00:04:44.004Z,1004.53
2022-10-01T00:05:44.163Z,1004.53
2022-10-01T00:06:43.203Z,1004.53
2022-10-01T00:07:43.164Z,1004.51
2022-10-01T00:08:43.186Z,1004.55
2022-10-01T00:09:43.175Z,1004.50
2022-10-01T00:10:43.134Z,1004.50
2022-10-01T00:11:43.136Z,1004.44
2022-10-01T00:12:43.095Z,1004.47
2022-10-01T00:13:43.129Z,1004.45
2022-10-01T00:14:43.035Z,1004.43
2022-10-01T00:15:43.073Z,1004.49
2022-10-01T00:16:43.118Z,1004.44
2022-10-01T00:17:43.026Z,1004.47
2022-10-01T00:18:42.998Z,1004.43
2022-10-01T00:19:43.018Z,1004.41
2022-10-01T00:20:42.967Z,1004.41
2022-10-01T00:21:42.979Z,1004.41
2022-10-01T00:22:43.839Z,1004.42
2022-10-01T00:23:43.720Z,1004.40
2022-10-01T00:24:43.656Z,1004.41
2022-10-01T00:25:42.957Z,1004.36
2022-10-01T00:26:43.688Z,1004.33
2022-10-01T00:27:43.886Z,1004.39
2022-10-01T00:28:43.758Z,1004.34
2022-10-01T00:29:42.860Z,1004.30
2022-10-01T00:30:43.818Z,1004.31
2022-10-01T00:31:44.390Z,1004.32
2022-10-01T00:32:42.824Z,1004.27
2022-10-01T00:33:43.784Z,1004.23
2022-10-01T00:34:43.680Z,1004.25
2022-10-01T00:35:43.596Z,1004.26
2022-10-01T00:36:43.491Z,1004.25
2022-10-01T00:37:43.660Z,1004.24
2022-10-01T00:38:42.716Z,1004.27
2022-10-01T00:39:42.751Z,1004.23
2022-10-01T00:40:43.622Z,1004.20
2022-10-01T00:41:43.142Z,1004.23
2022-10-01T00:42:42.710Z,1004.16
2022-10-01T00:43:42.662Z,1004.14
2022-10-01T00:44:43.491Z,1004.14
2022-10-01T00:45:43.421Z,1004.15
2022-10-01T00:46:42.672Z,1004.09
2022-10-01T00:47:42.603Z,1004.06
2022-10-01T00:48:43.377Z,1004.10
2022-10-01T00:49:43.529Z,1004.04
2022-10-01T00:50:43.431Z,1004.03
2022-10-01T00:51:42.574Z,1004.07
2022-10-01T00:52:42.543Z,1004.03
2022-10-01T00:53:42.556Z,1004.01
2022-10-01T00:54:43.308Z,1003.98
2022-10-01T00:55:42.493Z,1003.95
2022-10-01T00:56:43.366Z,1003.93
2022-10-01T00:57:42.584Z,1003.96
2022-10-01T00:58:42.462Z,1003.88
2022-10-01T00:59:42.503Z,1003.90
2022-10-01T01:00:43.238Z,1003.89
2022-10-01T01:01:42.524Z,1003.89
2022-10-01T01:02:43.397Z,1003.84
2022-10-01T01:03:42.429Z,1003.81
2022-10-01T01:04:43.119Z,1003.79
2022-10-01T01:05:43.266Z,1003.81
2022-10-01T01:06:43.215Z,1003.73
2022-10-01T01:07:43.119Z,1003.79
2022-10-01T01:08:43.767Z,1003.78
2022-10-01T01:09:42.298Z,1003.79
2022-10-01T01:10:42.619Z,1003.72
2022-10-01T01:11:42.314Z,1003.68
2022-10-01T01:12:42.311Z,1003.74
2022-10-01T01:13:42.266Z,1003.71
2022-10-01T01:14:43.238Z,1003.70
2022-10-01T01:15:43.162Z,1003.70
2022-10-01T01:16:42.978Z,1003.67
2022-10-01T01:17:43.146Z,1003.74
2022-10-01T01:18:42.209Z,1003.77
2022-10-01T01:19:42.950Z,1003.75
2022-10-01T01:20:43.110Z,1003.76
2022-10-01T01:21:43.016Z,1003.78
2022-10-01T01:22:42.919Z,1003.79
2022-10-01T01:23:43.079Z,1003.75
2022-10-01T01:24:42.449Z,1003.73
2022-10-01T01:25:42.053Z,1003.74
2022-10-01T01:26:43.053Z,1003.72
2022-10-01T01:27:42.997Z,1003.74
2022-10-01T01:28:42.060Z,1003.65
2022-10-01T01:29:42.090Z,1003.70
2022-10-01T01:30:42.001Z,1003.61
2022-10-01T01:31:42.821Z,1003.64
2022-10-01T01:32:42.721Z,1003.59
2022-10-01T01:33:41.939Z,1003.58
2022-10-01T01:34:41.943Z,1003.54
2022-10-01T01:35:42.008Z,1003.49
2022-10-01T01:36:42.041Z,1003.52
2022-10-01T01:37:41.941Z,1003.47
2022-10-01T01:38:41.896Z,1003.43
2022-10-01T01:39:41.894Z,1003.42
2022-10-01T01:40:41.865Z,1003.44
2022-10-01T01:41:42.632Z,1003.40
2022-10-01T01:42:42.790Z,1003.40
2022-10-01T01:43:41.852Z,1003.37
2022-10-01T01:44:41.812Z,1003.39
2022-10-01T01:45:41.917Z,1003.35
2022-10-01T01:46:41.823Z,1003.29
2022-10-01T01:47:41.773Z,1003.27
2022-10-01T01:48:41.824Z,1003.28
2022-10-01T01:49:41.754Z,1003.29
2022-10-01T01:50:41.815Z,1003.30
2022-10-01T01:51:41.796Z,1003.25
2022-10-01T01:52:41.675Z,1003.27
2022-10-01T01:53:42.502Z,1003.27
2022-10-01T01:54:42.004Z,1003.22
2022-10-01T01:55:42.565Z,1003.20
2022-10-01T01:56:41.644Z,1003.11
2022-10-01T01:57:41.642Z,1003.13
2022-10-01T01:58:41.598Z,1003.09
2022-10-01T01:59:42.047Z,1003.14
2022-10-01T02:00:41.579Z,1003.09
2022-10-01T02:01:41.858Z,1003.08
2022-10-01T02:02:42.444Z,1003.08
2022-10-01T02:03:41.798Z,1002.99
2022-10-01T02:04:41.763Z,1003.05
2022-10-01T02:05:42.376Z,1003.00
2022-10-01T02:06:41.987Z,1002.96
2022-10-01T02:07:42.928Z,1002.95
2022-10-01T02:08:42.338Z,1002.92
2022-10-01T02:09:42.247Z,1003.03
2022-10-01T02:10:41.431Z,1002.98
2022-10-01T02:11:42.327Z,1002.97
2022-10-01T02:12:41.407Z,1003.00
2022-10-01T02:13:41.368Z,1002.94
2022-10-01T02:14:41.430Z,1002.93
2022-10-01T02:15:41.431Z,1002.96
2022-10-01T02:16:41.476Z,1002.88
2022-10-01T02:17:41.458Z,1002.87
2022-10-01T02:18:41.412Z,1002.88
2022-10-01T02:19:42.126Z,1002.81
2022-10-01T02:20:42.221Z,1002.83
2022-10-01T02:21:42.123Z,1002.78
2022-10-01T02:22:41.283Z,1002.75
2022-10-01T02:23:41.289Z,1002.68
2022-10-01T02:24:41.225Z,1002.67
2022-10-01T02:25:41.221Z,1002.64
2022-10-01T02:26:42.150Z,1002.64
2022-10-01T02:27:41.164Z,1002.58
2022-10-01T02:28:42.613Z,1002.62
2022-10-01T02:29:41.172Z,1002.58
2022-10-01T02:30:41.179Z,1002.55
2022-10-01T02:31:41.986Z,1002.52
2022-10-01T02:32:41.121Z,1002.55
2022-10-01T02:33:41.992Z,1002.53
2022-10-01T02:34:41.919Z,1002.51
2022-10-01T02:35:41.090Z,1002.52
2022-10-01T02:36:41.963Z,1002.50
2022-10-01T02:37:41.064Z,1002.55
2022-10-01T02:38:41.082Z,1002.45
2022-10-01T02:39:42.485Z,1002.52
2022-10-01T02:40:41.832Z,1002.50
2022-10-01T02:41:42.021Z,1002.43
2022-10-01T02:42:41.174Z,1002.47
2022-10-01T02:43:43.048Z,1002.39
2022-10-01T02:44:41.235Z,1002.36
2022-10-01T02:45:41.897Z,1002.36
2022-10-01T02:46:41.766Z,1002.36
2022-10-01T02:47:41.691Z,1002.33
2022-10-01T02:48:40.866Z,1002.28
2022-10-01T02:49:41.760Z,1002.30
2022-10-01T02:50:41.649Z,1002.31
2022-10-01T02:51:41.810Z,1002.27
2022-10-01T02:52:40.950Z,1002.21
2022-10-01T02:53:41.613Z,1002.24
2022-10-01T02:54:41.766Z,1002.32
2022-10-01T02:55:40.824Z,1002.25
2022-10-01T02:56:48.420Z,1002.20
2022-10-01T02:57:41.770Z,1002.18
2022-10-01T02:58:41.640Z,1002.13
2022-10-01T02:59:41.545Z,1002.15
2022-10-01T03:00:41.445Z,1002.16
2022-10-01T03:01:41.644Z,1002.18
2022-10-01T03:02:41.681Z,1002.13
2022-10-01T03:03:41.423Z,1002.11
2022-10-01T03:04:41.568Z,1002.06
2022-10-01T03:05:40.681Z,1001.98
2022-10-01T03:06:40.625Z,1002.05
2022-10-01T03:07:41.542Z,1002.01
2022-10-01T03:08:41.458Z,1001.97
2022-10-01T03:09:40.589Z,1001.95
2022-10-01T03:10:43.494Z,1001.90
2022-10-01T03:11:41.844Z,1001.85
2022-10-01T03:12:41.319Z,1001.86
2022-10-01T03:13:41.251Z,1001.91
2022-10-01T03:14:40.604Z,1001.86
2022-10-01T03:15:40.529Z,1001.85
2022-10-01T03:16:40.481Z,1001.75
2022-10-01T03:17:41.232Z,1001.79
2022-10-01T03:18:40.421Z,1001.77
2022-10-01T03:19:41.432Z,1001.81
2022-10-01T03:20:40.457Z,1001.73
2022-10-01T03:21:41.222Z,1001.70
2022-10-01T03:22:40.382Z,1001.75
2022-10-01T03:23:40.371Z,1001.63
2022-10-01T03:24:40.345Z,1001.62
2022-10-01T03:25:41.096Z,1001.67
2022-10-01T03:26:40.362Z,1001.69
2022-10-01T03:27:40.702Z,1001.67
2022-10-01T03:28:40.774Z,1001.63
2022-10-01T03:29:40.256Z,1001.66
2022-10-01T03:30:40.275Z,1001.68
2022-10-01T03:31:41.053Z,1001.63
2022-10-01T03:32:41.195Z,1001.65
2022-10-01T03:33:41.804Z,1001.70
2022-10-01T03:34:40.994Z,1001.69
2022-10-01T03:35:41.163Z,1001.64
2022-10-01T03:36:41.072Z,1001.70
2022-10-01T03:37:40.964Z,1001.66
2022-10-01T03:38:41.143Z,1001.64
2022-10-01T03:39:41.037Z,1001.67
2022-10-01T03:40:40.139Z,1001.65
2022-10-01T03:41:41.098Z,1001.63
2022-10-01T03:42:40.995Z,1001.67
2022-10-01T03:43:40.902Z,1001.64
2022-10-01T03:44:41.505Z,1001.67
2022-10-01T03:45:40.119Z,1001.66
2022-10-01T03:46:40.056Z,1001.68
2022-10-01T03:47:40.774Z,1001.68
2022-10-01T03:48:40.939Z,1001.61
2022-10-01T03:49:40.841Z,1001.62
2022-10-01T03:50:40.998Z,1001.61
2022-10-01T03:51:39.999Z,1001.71
2022-10-01T03:52:39.968Z,1001.70
2022-10-01T03:53:40.707Z,1001.59
2022-10-01T03:54:40.870Z,1001.59
2022-10-01T03:55:40.777Z,1001.63
2022-10-01T03:56:39.983Z,1001.61
2022-10-01T03:57:39.868Z,1001.58
2022-10-01T03:58:40.739Z,1001.57
2022-10-01T03:59:40.643Z,1001.56
2022-10-01T04:00:39.873Z,1001.57
2022-10-01T04:01:40.023Z,1001.60
2022-10-01T04:02:40.705Z,1001.54
2022-10-01T04:03:39.792Z,1001.58
2022-10-01T04:04:40.680Z,1001.60
2022-10-01T04:05:40.584Z,1001.59
2022-10-01T04:06:39.760Z,1001.59
2022-10-01T04:07:39.721Z,1001.60
2022-10-01T04:08:40.551Z,1001.57
2022-10-01T04:09:40.712Z,1001.63
2022-10-01T04:10:40.616Z,1001.60
2022-10-01T04:11:40.521Z,1001.61
2022-10-01T04:12:40.425Z,1001.51
2022-10-01T04:13:40.593Z,1001.45
2022-10-01T04:14:40.482Z,1001.48
2022-10-01T04:15:40.393Z,1001.40
2022-10-01T04:16:41.176Z,1001.42
2022-10-01T04:17:43.887Z,1001.41
2022-10-01T04:18:41.383Z,1001.41
2022-10-01T04:19:39.563Z,1001.40
2022-10-01T04:20:39.631Z,1001.41
2022-10-01T04:21:41.123Z,1001.45
2022-10-01T04:22:39.574Z,1001.40
2022-10-01T04:23:40.408Z,1001.40
2022-10-01T04:24:40.294Z,1001.36
2022-10-01T04:25:40.475Z,1001.31
2022-10-01T04:26:40.359Z,1001.19
2022-10-01T04:27:40.262Z,1001.14
2022-10-01T04:28:40.422Z,1001.09
2022-10-01T04:29:40.320Z,1001.06
2022-10-01T04:30:40.277Z,1001.09
2022-10-01T04:31:40.453Z,1001.07
2022-10-01T04:32:40.294Z,1000.99
2022-10-01T04:33:39.506Z,1001.05
2022-10-01T04:34:40.356Z,1001.02
2022-10-01T04:35:39.349Z,1000.99
2022-10-01T04:36:39.526Z,1000.95
2022-10-01T04:37:39.336Z,1000.91
2022-10-01T04:38:39.308Z,1000.90
2022-10-01T04:39:40.161Z,1000.88
2022-10-01T04:40:40.062Z,1000.82
2022-10-01T04:41:39.476Z,1000.76
2022-10-01T04:42:40.710Z,1000.74
2022-10-01T04:43:40.017Z,1000.67
2022-10-01T04:44:40.170Z,1000.64
2022-10-01T04:45:40.073Z,1000.62
2022-10-01T04:46:39.311Z,1000.54
2022-10-01T04:47:40.138Z,1000.50
2022-10-01T04:48:40.039Z,1000.49
2022-10-01T04:49:39.953Z,1000.48
2022-10-01T04:50:39.120Z,1000.49
2022-10-01T04:51:39.127Z,1000.42
2022-10-01T04:52:39.113Z,1000.37
2022-10-01T04:53:39.123Z,1000.36
2022-10-01T04:54:39.971Z,1000.27
2022-10-01T04:55:39.266Z,1000.19
2022-10-01T04:56:40.129Z,1000.23
2022-10-01T04:57:39.943Z,1000.24
2022-10-01T04:58:39.956Z,1000.20
2022-10-01T04:59:39.751Z,1000.20
2022-10-01T05:00:39.044Z,1000.07
2022-10-01T05:01:39.295Z,999.99
2022-10-01T05:02:39.726Z,999.99
2022-10-01T05:03:39.890Z,999.88
2022-10-01T05:04:38.958Z,999.90
2022-10-01T05:05:38.945Z,999.83
2022-10-01T05:06:38.943Z,999.80
2022-10-01T05:07:39.751Z,999.73
2022-10-01T05:08:39.654Z,999.75
2022-10-01T05:09:38.948Z,999.73
2022-10-01T05:10:39.716Z,999.61
2022-10-01T05:11:39.691Z,999.61
2022-10-01T05:12:39.857Z,999.60
2022-10-01T05:13:38.813Z,999.61
2022-10-01T05:14:39.638Z,999.64
2022-10-01T05:15:39.755Z,999.57
2022-10-01T05:16:38.872Z,999.59
2022-10-01T05:17:39.568Z,999.50
2022-10-01T05:18:39.777Z,999.48
2022-10-01T05:19:39.627Z,999.43
2022-10-01T05:20:38.847Z,999.41
2022-10-01T05:21:38.716Z,999.39
2022-10-01T05:22:38.797Z,999.44
2022-10-01T05:23:39.521Z,999.40
2022-10-01T05:24:39.396Z,999.44
2022-10-01T05:25:39.557Z,999.40
2022-10-01T05:26:39.494Z,999.35
2022-10-01T05:27:39.384Z,999.27
2022-10-01T05:28:39.646Z,999.26
2022-10-01T05:29:38.581Z,999.28
2022-10-01T05:30:38.601Z,999.27
2022-10-01T05:31:39.083Z,999.24
2022-10-01T05:32:38.514Z,999.25
2022-10-01T05:33:39.303Z,999.27
2022-10-01T05:34:38.516Z,999.21
2022-10-01T05:35:38.718Z,999.18
2022-10-01T05:36:38.494Z,999.18
2022-10-01T05:37:39.433Z,999.11
2022-10-01T05:38:39.343Z,999.09
2022-10-01T05:39:38.480Z,999.12
2022-10-01T05:40:39.392Z,999.15
2022-10-01T05:41:39.155Z,999.11
2022-10-01T05:42:38.484Z,999.14
2022-10-01T05:43:38.443Z,999.16
2022-10-01T05:44:38.606Z,999.06
2022-10-01T05:45:39.256Z,999.01
2022-10-01T05:46:39.184Z,999.01
2022-10-01T05:47:38.352Z,999.05
2022-10-01T05:48:38.460Z,999.04
2022-10-01T05:49:39.048Z,999.05
2022-10-01T05:50:38.299Z,999.05
2022-10-01T05:51:39.148Z,999.05
2022-10-01T05:52:38.267Z,999.01
2022-10-01T05:53:38.285Z,998.94
2022-10-01T05:54:39.114Z,998.94
2022-10-01T05:55:38.996Z,998.97
2022-10-01T05:56:38.255Z,998.92
2022-10-01T05:57:39.064Z,998.91
2022-10-01T05:58:38.960Z,998.96
2022-10-01T05:59:38.191Z,998.91
2022-10-01T06:00:39.022Z,998.95
2022-10-01T06:01:38.955Z,998.89
2022-10-01T06:02:39.159Z,998.87
2022-10-01T06:03:38.201Z,998.88
2022-10-01T06:04:41.212Z,998.88
2022-10-01T06:05:38.201Z,998.64
2022-10-01T06:06:38.950Z,998.63
2022-10-01T06:07:38.857Z,998.64
2022-10-01T06:08:38.984Z,998.58
2022-10-01T06:09:38.103Z,998.50
2022-10-01T06:10:38.033Z,998.50
2022-10-01T06:11:38.741Z,998.54
2022-10-01T06:12:38.884Z,998.54
2022-10-01T06:13:38.804Z,998.51
2022-10-01T06:14:37.943Z,998.46
2022-10-01T06:15:38.101Z,998.44
2022-10-01T06:16:37.984Z,998.48
2022-10-01T06:17:37.886Z,998.49
2022-10-01T06:18:38.824Z,998.53
2022-10-01T06:19:37.859Z,998.52
2022-10-01T06:20:38.640Z,998.45
2022-10-01T06:21:38.786Z,998.57
2022-10-01T06:22:38.147Z,998.53
2022-10-01T06:23:37.827Z,998.54
2022-10-01T06:24:38.207Z,998.45
2022-10-01T06:25:39.232Z,998.52
2022-10-01T06:26:38.568Z,998.43
2022-10-01T06:27:37.788Z,998.46
2022-10-01T06:28:37.742Z,998.43
2022-10-01T06:29:38.528Z,998.35
2022-10-01T06:30:37.716Z,998.36
2022-10-01T06:31:38.202Z,998.26
2022-10-01T06:32:37.659Z,998.28
2022-10-01T06:33:38.405Z,998.28
2022-10-01T06:34:38.565Z,998.15
2022-10-01T06:35:37.611Z,998.25
2022-10-01T06:36:38.371Z,998.15
2022-10-01T06:37:38.530Z,998.15
2022-10-01T06:38:38.437Z,998.11
2022-10-01T06:39:38.339Z,998.15
2022-10-01T06:40:37.549Z,998.09
2022-10-01T06:41:38.404Z,998.06
2022-10-01T06:42:38.324Z,997.99
2022-10-01T06:43:38.471Z,998.05
2022-10-01T06:44:38.376Z,998.10
2022-10-01T06:45:38.372Z,998.10
2022-10-01T06:46:38.486Z,998.14
2022-10-01T06:47:38.271Z,998.17
2022-10-01T06:48:38.229Z,998.19
2022-10-01T06:49:37.441Z,998.21
2022-10-01T06:50:38.364Z,998.14
2022-10-01T06:51:37.462Z,998.17
2022-10-01T06:52:38.375Z,998.13
2022-10-01T06:53:38.873Z,998.05
2022-10-01T06:54:37.355Z,998.06
2022-10-01T06:55:38.126Z,997.93
2022-10-01T06:56:37.344Z,997.98
2022-10-01T06:57:37.354Z,997.98
2022-10-01T06:58:38.052Z,998.00
2022-10-01T06:59:37.321Z,998.01
2022-10-01T07:00:37.353Z,998.04
2022-10-01T07:01:37.917Z,997.90
2022-10-01T07:02:38.460Z,997.93
2022-10-01T07:03:38.085Z,997.94
2022-10-01T07:04:37.985Z,997.90
2022-10-01T07:05:38.165Z,997.84
2022-10-01T07:06:37.214Z,997.83
2022-10-01T07:07:37.955Z,997.86
2022-10-01T07:08:38.122Z,997.87
2022-10-01T07:09:38.017Z,997.79
2022-10-01T07:10:38.565Z,997.75
2022-10-01T07:11:38.107Z,997.77
2022-10-01T07:12:37.985Z,997.74
2022-10-01T07:13:37.908Z,997.75
2022-10-01T07:14:38.056Z,997.76
2022-10-01T07:15:37.964Z,997.79
2022-10-01T07:16:38.514Z,997.74
2022-10-01T07:17:37.009Z,997.73
2022-10-01T07:18:37.968Z,997.69
2022-10-01T07:19:37.837Z,997.72
2022-10-01T07:20:37.735Z,997.79
2022-10-01T07:21:37.921Z,997.73
2022-10-01T07:22:37.800Z,997.62
2022-10-01T07:23:36.968Z,997.72
2022-10-01T07:24:37.858Z,997.66
2022-10-01T07:25:37.769Z,997.62
2022-10-01T07:26:37.667Z,997.69
2022-10-01T07:27:37.827Z,997.66
2022-10-01T07:28:37.737Z,997.60
2022-10-01T07:29:37.642Z,997.57
2022-10-01T07:30:36.830Z,997.56
2022-10-01T07:31:37.295Z,997.59
2022-10-01T07:32:37.613Z,997.57
2022-10-01T07:33:36.809Z,997.61
2022-10-01T07:34:36.813Z,997.61
2022-10-01T07:35:36.771Z,997.58
2022-10-01T07:36:36.793Z,997.52
2022-10-01T07:37:36.754Z,997.57
2022-10-01T07:38:37.572Z,997.59
2022-10-01T07:39:36.731Z,997.58
2022-10-01T07:40:36.868Z,997.59
2022-10-01T07:41:37.511Z,997.55
2022-10-01T07:42:38.184Z,997.53
2022-10-01T07:43:36.677Z,997.57
2022-10-01T07:44:37.492Z,997.60
2022-10-01T07:45:37.603Z,997.59
2022-10-01T07:46:36.592Z,997.51
2022-10-01T07:47:36.609Z,997.52
2022-10-01T07:48:36.594Z,997.54
2022-10-01T07:49:36.573Z,997.56
2022-10-01T07:50:36.533Z,997.51
2022-10-01T07:51:37.317Z,997.52
2022-10-01T07:52:37.474Z,997.44
2022-10-01T07:53:37.381Z,997.48
2022-10-01T07:54:37.962Z,997.50
2022-10-01T07:55:37.445Z,997.45
2022-10-01T07:56:37.361Z,997.48
2022-10-01T07:57:37.255Z,997.47
2022-10-01T07:58:37.415Z,997.46
2022-10-01T07:59:37.316Z,997.47
2022-10-01T08:00:37.224Z,997.49
2022-10-01T08:01:36.854Z,997.46
2022-10-01T08:02:36.405Z,997.43
2022-10-01T08:03:37.186Z,997.41
2022-10-01T08:04:36.335Z,997.39
2022-10-01T08:05:36.365Z,997.35
2022-10-01T08:06:36.326Z,997.38
2022-10-01T08:07:36.308Z,997.36
2022-10-01T08:08:37.227Z,997.36
2022-10-01T08:09:36.276Z,997.35
2022-10-01T08:10:36.248Z,997.38
2022-10-01T08:11:36.597Z,997.33
2022-10-01T08:12:37.087Z,997.24
2022-10-01T08:13:37.000Z,997.26
2022-10-01T08:14:36.288Z,997.25
2022-10-01T08:15:36.176Z,997.29
2022-10-01T08:16:37.026Z,997.18
2022-10-01T08:17:36.168Z,997.12
2022-10-01T08:18:36.128Z,997.08
2022-10-01T08:19:36.124Z,997.12
2022-10-01T08:20:37.107Z,997.16
2022-10-01T08:21:37.216Z,997.23
2022-10-01T08:22:41.695Z,997.21
2022-10-01T08:23:37.831Z,997.22
2022-10-01T08:24:36.030Z,997.24
2022-10-01T08:25:36.061Z,997.16
2022-10-01T08:26:36.771Z,997.08
2022-10-01T08:27:36.931Z,997.06
2022-10-01T08:28:36.012Z,997.16
2022-10-01T08:29:36.749Z,997.17
2022-10-01T08:30:36.903Z,997.10
2022-10-01T08:31:37.230Z,997.13
2022-10-01T08:32:35.934Z,997.07
2022-10-01T08:33:36.872Z,997.11
2022-10-01T08:34:35.923Z,997.16
2022-10-01T08:35:35.896Z,997.18
2022-10-01T08:36:36.833Z,997.14
2022-10-01T08:37:36.758Z,997.11
2022-10-01T08:38:35.883Z,997.13
2022-10-01T08:39:35.842Z,997.10
2022-10-01T08:40:36.741Z,997.05
2022-10-01T08:41:36.147Z,996.98
2022-10-01T08:42:36.774Z,996.97
2022-10-01T08:43:36.684Z,997.00
2022-10-01T08:44:36.619Z,996.97
2022-10-01T08:45:35.786Z,996.91
2022-10-01T08:46:37.177Z,996.94
2022-10-01T08:47:36.552Z,996.93
2022-10-01T08:48:35.707Z,996.94
2022-10-01T08:49:36.615Z,996.90
2022-10-01T08:50:36.518Z,996.87
2022-10-01T08:51:36.666Z,996.84
2022-10-01T08:52:35.711Z,996.88
2022-10-01T08:53:36.485Z,996.86
2022-10-01T08:54:36.395Z,996.86
2022-10-01T08:55:35.678Z,996.86
2022-10-01T08:56:36.456Z,996.83
2022-10-01T08:57:36.357Z,996.87
2022-10-01T08:58:35.828Z,996.89
2022-10-01T08:59:36.418Z,996.88
2022-10-01T09:00:35.586Z,996.90
2022-10-01T09:01:35.846Z,996.93
2022-10-01T09:02:35.518Z,996.96
2022-10-01T09:03:35.479Z,996.94
2022-10-01T09:04:35.890Z,996.92
2022-10-01T09:05:36.360Z,996.90
2022-10-01T09:06:35.518Z,996.91
2022-10-01T09:07:36.899Z,996.87
2022-10-01T09:08:36.321Z,996.83
2022-10-01T09:09:36.230Z,996.90
2022-10-01T09:10:36.389Z,996.90
2022-10-01T09:11:36.650Z,996.91
2022-10-01T09:12:36.879Z,996.92
2022-10-01T09:13:36.361Z,996.84
2022-10-01T09:14:35.323Z,996.86
2022-10-01T09:15:36.165Z,996.87
2022-10-01T09:16:36.102Z,996.83
2022-10-01T09:17:36.233Z,996.83
2022-10-01T09:18:36.144Z,996.83
2022-10-01T09:19:36.032Z,996.87
2022-10-01T09:20:36.193Z,996.78
2022-10-01T09:21:36.422Z,996.77
2022-10-01T09:22:36.003Z,996.78
2022-10-01T09:23:35.262Z,996.81
2022-10-01T09:24:35.374Z,996.82
2022-10-01T09:25:35.194Z,996.82
2022-10-01T09:26:36.162Z,996.79
2022-10-01T09:27:35.185Z,996.82
2022-10-01T09:28:35.174Z,996.82
2022-10-01T09:29:35.119Z,996.80
2022-10-01T09:30:35.095Z,996.81
2022-10-01T09:31:35.417Z,996.78
2022-10-01T09:32:36.065Z,996.80
2022-10-01T09:33:35.087Z,996.76
2022-10-01T09:34:35.092Z,996.78
2022-10-01T09:35:35.235Z,996.80
2022-10-01T09:36:35.241Z,996.77
2022-10-01T09:37:35.852Z,996.78
2022-10-01T09:38:35.748Z,996.76
2022-10-01T09:39:35.908Z,996.74
2022-10-01T09:40:34.996Z,996.76
2022-10-01T09:41:36.309Z,996.81
2022-10-01T09:42:35.878Z,996.83
2022-10-01T09:43:34.939Z,996.71
2022-10-01T09:44:34.983Z,996.62
2022-10-01T09:45:36.034Z,996.71
2022-10-01T09:46:34.897Z,996.73
2022-10-01T09:47:35.648Z,996.73
2022-10-01T09:48:34.886Z,996.78
2022-10-01T09:49:35.726Z,996.78
2022-10-01T09:50:35.618Z,996.77
2022-10-01T09:51:38.233Z,996.78
2022-10-01T09:52:36.710Z,996.80
2022-10-01T09:53:35.592Z,996.77
2022-10-01T09:54:36.275Z,996.84
2022-10-01T09:55:34.759Z,996.77
2022-10-01T09:56:35.591Z,996.76
2022-10-01T09:57:34.750Z,996.81
2022-10-01T09:58:35.620Z,996.89
2022-10-01T09:59:34.704Z,996.86
2022-10-01T10:00:34.690Z,996.94
2022-10-01T10:01:35.612Z,996.95
2022-10-01T10:02:35.268Z,996.92
2022-10-01T10:03:35.735Z,996.98
2022-10-01T10:04:35.004Z,997.01
2022-10-01T10:05:35.183Z,997.02
2022-10-01T10:06:35.514Z,997.06
2022-10-01T10:07:35.271Z,997.06
2022-10-01T10:08:34.593Z,997.07
2022-10-01T10:09:34.624Z,997.10
2022-10-01T10:10:35.593Z,997.10
2022-10-01T10:11:35.914Z,997.13
2022-10-01T10:12:35.571Z,997.12
2022-10-01T10:13:34.514Z,997.14
2022-10-01T10:14:34.544Z,997.17
2022-10-01T10:15:35.332Z,997.13
2022-10-01T10:16:35.845Z,997.15
2022-10-01T10:17:35.334Z,997.13
2022-10-01T10:18:34.455Z,997.15
2022-10-01T10:19:34.457Z,997.16
2022-10-01T10:20:34.416Z,997.18
2022-10-01T10:21:35.208Z,997.23
2022-10-01T10:22:35.367Z,997.29
2022-10-01T10:23:35.361Z,997.29
2022-10-01T10:24:35.178Z,997.29
2022-10-01T10:25:35.338Z,997.27
2022-10-01T10:26:34.725Z,997.23
2022-10-01T10:27:35.143Z,997.28
2022-10-01T10:28:37.665Z,997.29
2022-10-01T10:29:34.300Z,997.31
2022-10-01T10:30:35.150Z,997.32
2022-10-01T10:31:35.065Z,997.32
2022-10-01T10:32:35.199Z,997.30
2022-10-01T10:33:34.240Z,997.38
2022-10-01T10:34:34.993Z,997.37
2022-10-01T10:35:35.140Z,997.37
2022-10-01T10:36:35.280Z,997.39
2022-10-01T10:37:34.950Z,997.41
2022-10-01T10:38:34.162Z,997.46
2022-10-01T10:39:34.171Z,997.42
2022-10-01T10:40:34.162Z,997.55
2022-10-01T10:41:34.393Z,997.52
2022-10-01T10:42:35.571Z,997.50
2022-10-01T10:43:34.114Z,997.53
2022-10-01T10:44:35.173Z,997.64
2022-10-01T10:45:34.963Z,997.60
2022-10-01T10:46:34.960Z,997.62
2022-10-01T10:47:34.083Z,997.66
2022-10-01T10:48:34.920Z,997.66
2022-10-01T10:49:34.054Z,997.66
2022-10-01T10:50:34.984Z,997.67
2022-10-01T10:51:34.246Z,997.65
2022-10-01T10:52:34.333Z,997.67
2022-10-01T10:53:33.966Z,997.66
2022-10-01T10:54:34.869Z,997.67
2022-10-01T10:55:33.949Z,997.65
2022-10-01T10:56:34.134Z,997.71
2022-10-01T10:57:33.927Z,997.67
2022-10-01T10:58:34.269Z,997.67
2022-10-01T10:59:34.628Z,997.65
2022-10-01T11:00:34.787Z,997.67
2022-10-01T11:01:34.013Z,997.66
2022-10-01T11:02:33.911Z,997.69
2022-10-01T11:03:33.817Z,997.68
2022-10-01T11:04:34.278Z,997.73
2022-10-01T11:05:34.569Z,997.75
2022-10-01T11:06:34.532Z,997.84
2022-10-01T11:07:34.292Z,997.86
2022-10-01T11:08:34.458Z,997.93
2022-10-01T11:09:33.760Z,997.94
2022-10-01T11:10:34.600Z,997.89
2022-10-01T11:11:33.785Z,997.92
2022-10-01T11:12:33.693Z,997.97
2022-10-01T11:13:34.665Z,997.99
2022-10-01T11:14:33.671Z,997.94
2022-10-01T11:15:34.730Z,997.89
2022-10-01T11:16:34.769Z,997.89
2022-10-01T11:17:33.962Z,997.89
2022-10-01T11:18:33.987Z,997.95
2022-10-01T11:19:33.603Z,998.01
2022-10-01T11:20:34.412Z,998.02
2022-10-01T11:21:33.591Z,997.95
2022-10-01T11:22:34.472Z,998.00
2022-10-01T11:23:34.375Z,998.01
2022-10-01T11:24:34.974Z,998.12
2022-10-01T11:25:33.526Z,998.24
2022-10-01T11:26:33.664Z,998.28
2022-10-01T11:27:33.467Z,998.34
2022-10-01T11:28:34.408Z,998.41
2022-10-01T11:29:34.307Z,998.34
2022-10-01T11:30:34.214Z,998.45
2022-10-01T11:31:34.402Z,998.48
2022-10-01T11:32:33.438Z,998.48
2022-10-01T11:33:33.420Z,998.50
2022-10-01T11:34:34.809Z,998.51
2022-10-01T11:35:33.349Z,998.52
2022-10-01T11:36:34.357Z,998.44
2022-10-01T11:37:34.306Z,998.48
2022-10-01T11:38:34.210Z,998.48
2022-10-01T11:39:34.118Z,998.42
2022-10-01T11:40:34.283Z,998.40
2022-10-01T11:41:33.312Z,998.44
2022-10-01T11:42:33.299Z,998.42
2022-10-01T11:43:33.285Z,998.44
2022-10-01T11:44:33.254Z,998.58
2022-10-01T11:45:34.052Z,998.64
2022-10-01T11:46:33.616Z,998.72
2022-10-01T11:47:34.124Z,998.68
2022-10-01T11:48:34.022Z,998.71
2022-10-01T11:49:33.924Z,998.62
2022-10-01T11:50:39.075Z,998.63
2022-10-01T11:51:33.990Z,998.69
2022-10-01T11:52:33.920Z,998.58
2022-10-01T11:53:34.066Z,998.63
2022-10-01T11:54:33.965Z,998.59
2022-10-01T11:55:33.866Z,998.61
2022-10-01T11:56:33.421Z,998.72
2022-10-01T11:57:33.964Z,998.74
2022-10-01T11:58:33.838Z,998.68
2022-10-01T11:59:34.012Z,998.76
2022-10-01T12:00:33.905Z,998.74
2022-10-01T12:01:33.071Z,998.70
2022-10-01T12:02:33.023Z,998.72
2022-10-01T12:03:33.345Z,998.70
2022-10-01T12:04:33.777Z,998.66
2022-10-01T12:05:33.557Z,998.67
2022-10-01T12:06:34.536Z,998.67
2022-10-01T12:07:33.750Z,998.65
2022-10-01T12:08:33.946Z,998.63
2022-10-01T12:09:32.920Z,998.59
2022-10-01T12:10:33.709Z,998.69
2022-10-01T12:11:32.946Z,998.74
2022-10-01T12:12:33.777Z,998.73
2022-10-01T12:13:32.894Z,998.72
2022-10-01T12:14:33.229Z,998.78
2022-10-01T12:15:32.840Z,998.72
2022-10-01T12:16:33.848Z,998.72
2022-10-01T12:17:33.553Z,998.70
2022-10-01T12:18:33.748Z,998.71
2022-10-01T12:19:33.620Z,998.72